sensor_id;sensor_type;location;lat;lon;timestamp;pressure;altitude;pressure_sealevel;temperature;humidity
4590;BME280;2307;48.448;9.216;2023-02-03T00:01:28;96654.78;;;4.31;100.00
4590;BME280;2307;48.448;9.216;2023-02-03T00:03:54;96660.66;;;4.33;100.00
4590;BME280;2307;48.448;9.216;2023-02-03T00:06:21;96658.19;;;4.32;100.00
4590;BME280;2307;48.448;9.216;2023-02-03T00:08:49;96660.16;;;4.29;100.00
4590;BME280;2307;48.448;9.216;2023-02-03T00:11:18;96640.38;;;4.27;100.00
4590;BME280;2307;48.448;9.216;2023-02-03T00:13:44;96651.34;;;4.31;100.00
4590;BME280;2307;48.448;9.216;2023-02-03T00:16:11;96662.44;;;4.33;100.00
4590;BME280;2307;48.448;9.216;2023-02-03T00:18:37;96648.72;;;4.31;100.00
4590;BME280;2307;48.448;9.216;2023-02-03T00:21:04;96655.75;;;4.30;100.00
4590;BME280;2307;48.448;9.216;2023-02-03T00:23:30;96679.44;;;4.28;100.00
4590;BME280;2307;48.448;9.216;2023-02-03T00:25:59;96663.75;;;4.28;100.00
4590;BME280;2307;48.448;9.216;2023-02-03T00:28:31;96688.28;;;4.27;100.00
4590;BME280;2307;48.448;9.216;2023-02-03T00:30:57;96657.72;;;4.28;100.00
4590;BME280;2307;48.448;9.216;2023-02-03T00:33:23;96676.84;;;4.20;100.00
4590;BME280;2307;48.448;9.216;2023-02-03T00:35:50;96689.41;;;4.17;100.00
4590;BME280;2307;48.448;9.216;2023-02-03T00:38:16;96663.75;;;4.12;100.00
4590;BME280;2307;48.448;9.216;2023-02-03T00:40:50;96680.59;;;4.10;100.00
4590;BME280;2307;48.448;9.216;2023-02-03T00:43:17;96690.41;;;4.08;100.00
4590;BME280;2307;48.448;9.216;2023-02-03T00:45:44;96686.63;;;4.10;100.00
4590;BME280;2307;48.448;9.216;2023-02-03T00:48:10;96677.16;;;4.09;100.00
4590;BME280;2307;48.448;9.216;2023-02-03T00:50:37;96697.28;;;4.09;100.00
4590;BME280;2307;48.448;9.216;2023-02-03T00:53:03;96683.03;;;4.11;100.00
4590;BME280;2307;48.448;9.216;2023-02-03T00:55:29;96685.34;;;4.14;100.00
4590;BME280;2307;48.448;9.216;2023-02-03T00:57:56;96676.81;;;4.12;100.00
4590;BME280;2307;48.448;9.216;2023-02-03T01:00:23;96685.81;;;4.10;100.00
4590;BME280;2307;48.448;9.216;2023-02-03T01:02:50;96694.78;;;4.15;100.00
4590;BME280;2307;48.448;9.216;2023-02-03T01:05:16;96697.13;;;4.18;100.00
4590;BME280;2307;48.448;9.216;2023-02-03T01:07:43;96697.72;;;4.12;100.00
4590;BME280;2307;48.448;9.216;2023-02-03T01:10:09;96701.50;;;4.10;100.00
4590;BME280;2307;48.448;9.216;2023-02-03T01:12:36;96701.69;;;4.08;100.00
4590;BME280;2307;48.448;9.216;2023-02-03T01:15:02;96713.91;;;4.08;100.00
4590;BME280;2307;48.448;9.216;2023-02-03T01:17:30;96711.13;;;4.09;100.00
4590;BME280;2307;48.448;9.216;2023-02-03T01:19:56;96723.09;;;4.12;100.00
4590;BME280;2307;48.448;9.216;2023-02-03T01:22:23;96717.34;;;4.08;100.00
4590;BME280;2307;48.448;9.216;2023-02-03T01:24:49;96713.09;;;4.07;100.00
4590;BME280;2307;48.448;9.216;2023-02-03T01:27:15;96709.03;;;4.05;100.00
4590;BME280;2307;48.448;9.216;2023-02-03T01:29:42;96697.09;;;4.10;100.00
4590;BME280;2307;48.448;9.216;2023-02-03T01:32:08;96705.09;;;4.09;100.00
4590;BME280;2307;48.448;9.216;2023-02-03T01:34:36;96703.28;;;4.09;100.00
4590;BME280;2307;48.448;9.216;2023-02-03T01:37:02;96670.63;;;4.13;100.00
4590;BME280;2307;48.448;9.216;2023-02-03T01:39:29;96670.28;;;4.16;100.00
4590;BME280;2307;48.448;9.216;2023-02-03T01:41:55;96643.84;;;4.11;100.00
4590;BME280;2307;48.448;9.216;2023-02-03T01:44:37;96642.03;;;4.12;100.00
4590;BME280;2307;48.448;9.216;2023-02-03T01:47:04;96644.66;;;4.12;100.00
4590;BME280;2307;48.448;9.216;2023-02-03T01:49:37;96646.13;;;4.14;100.00
4590;BME280;2307;48.448;9.216;2023-02-03T01:52:04;96655.44;;;4.17;100.00
4590;BME280;2307;48.448;9.216;2023-02-03T01:54:31;96673.56;;;4.18;100.00
4590;BME280;2307;48.448;9.216;2023-02-03T01:57:02;96648.72;;;4.14;100.00
4590;BME280;2307;48.448;9.216;2023-02-03T01:59:29;96638.28;;;4.14;100.00
4590;BME280;2307;48.448;9.216;2023-02-03T02:01:56;96645.28;;;4.14;100.00
4590;BME280;2307;48.448;9.216;2023-02-03T02:04:23;96637.28;;;4.15;100.00
4590;BME280;2307;48.448;9.216;2023-02-03T02:06:53;96626.50;;;4.18;100.00
4590;BME280;2307;48.448;9.216;2023-02-03T02:09:21;96636.13;;;4.26;100.00
4590;BME280;2307;48.448;9.216;2023-02-03T02:11:48;96650.84;;;4.27;100.00
4590;BME280;2307;48.448;9.216;2023-02-03T02:14:14;96657.22;;;4.24;100.00
4590;BME280;2307;48.448;9.216;2023-02-03T02:16:43;96650.84;;;4.27;100.00
4590;BME280;2307;48.448;9.216;2023-02-03T02:19:21;96655.75;;;4.30;100.00
4590;BME280;2307;48.448;9.216;2023-02-03T02:21:57;96666.22;;;4.30;100.00
4590;BME280;2307;48.448;9.216;2023-02-03T02:27:08;96659.81;;;4.33;100.00
4590;BME280;2307;48.448;9.216;2023-02-03T02:29:50;96655.56;;;4.32;100.00
4590;BME280;2307;48.448;9.216;2023-02-03T02:32:28;96633.03;;;4.31;100.00
4590;BME280;2307;48.448;9.216;2023-02-03T02:34:57;96631.88;;;4.33;100.00
4590;BME280;2307;48.448;9.216;2023-02-03T02:37:29;96613.09;;;4.29;100.00
4590;BME280;2307;48.448;9.216;2023-02-03T02:40:02;96619.47;;;4.27;100.00
4590;BME280;2307;48.448;9.216;2023-02-03T02:42:33;96586.44;;;4.26;100.00
4590;BME280;2307;48.448;9.216;2023-02-03T02:45:03;96572.41;;;4.27;100.00
4590;BME280;2307;48.448;9.216;2023-02-03T02:47:32;96579.75;;;4.23;100.00
4590;BME280;2307;48.448;9.216;2023-02-03T02:49:59;96590.22;;;4.23;100.00
4590;BME280;2307;48.448;9.216;2023-02-03T02:52:26;96597.25;;;4.23;100.00
4590;BME280;2307;48.448;9.216;2023-02-03T02:54:55;96595.13;;;4.18;100.00
4590;BME280;2307;48.448;9.216;2023-02-03T02:57:23;96593.66;;;4.16;100.00
4590;BME280;2307;48.448;9.216;2023-02-03T02:59:52;96614.41;;;4.17;100.00
4590;BME280;2307;48.448;9.216;2023-02-03T03:02:18;96598.88;;;4.24;100.00
4590;BME280;2307;48.448;9.216;2023-02-03T03:04:46;96585.47;;;4.19;100.00
4590;BME280;2307;48.448;9.216;2023-02-03T03:07:15;96575.34;;;4.24;100.00
4590;BME280;2307;48.448;9.216;2023-02-03T03:09:44;96556.38;;;4.22;100.00
4590;BME280;2307;48.448;9.216;2023-02-03T03:12:13;96560.97;;;4.20;100.00
4590;BME280;2307;48.448;9.216;2023-02-03T03:14:43;96571.41;;;4.20;100.00
4590;BME280;2307;48.448;9.216;2023-02-03T03:17:11;96575.50;;;4.22;100.00
4590;BME280;2307;48.448;9.216;2023-02-03T03:19:40;96575.50;;;4.22;100.00
4590;BME280;2307;48.448;9.216;2023-02-03T03:22:09;96585.63;;;4.25;100.00
4590;BME280;2307;48.448;9.216;2023-02-03T03:24:39;96581.41;;;4.24;100.00
4590;BME280;2307;48.448;9.216;2023-02-03T03:27:07;96604.25;;;4.31;100.00
4590;BME280;2307;48.448;9.216;2023-02-03T03:29:35;96591.00;;;4.32;100.00
4590;BME280;2307;48.448;9.216;2023-02-03T03:32:03;96585.28;;;4.37;100.00
4590;BME280;2307;48.448;9.216;2023-02-03T03:34:30;96584.78;;;4.41;100.00
4590;BME280;2307;48.448;9.216;2023-02-03T03:36:58;96600.66;;;4.40;100.00
4590;BME280;2307;48.448;9.216;2023-02-03T03:39:30;96584.78;;;4.41;100.00
4590;BME280;2307;48.448;9.216;2023-02-03T03:41:59;96594.44;;;4.41;100.00
4590;BME280;2307;48.448;9.216;2023-02-03T03:44:28;96582.34;;;4.40;100.00
4590;BME280;2307;48.448;9.216;2023-02-03T03:46:58;96585.25;;;4.45;100.00
4590;BME280;2307;48.448;9.216;2023-02-03T03:49:28;96575.81;;;4.36;100.00
4590;BME280;2307;48.448;9.216;2023-02-03T03:51:56;96632.69;;;4.42;100.00
4590;BME280;2307;48.448;9.216;2023-02-03T03:54:24;96615.53;;;4.39;100.00
4590;BME280;2307;48.448;9.216;2023-02-03T03:56:53;96628.44;;;4.33;100.00
4590;BME280;2307;48.448;9.216;2023-02-03T03:59:23;96635.97;;;4.44;100.00
4590;BME280;2307;48.448;9.216;2023-02-03T04:01:50;96648.84;;;4.45;100.00
4590;BME280;2307;48.448;9.216;2023-02-03T04:04:17;96644.13;;;4.41;100.00
4590;BME280;2307;48.448;9.216;2023-02-03T04:06:44;96622.53;;;4.47;100.00
4590;BME280;2307;48.448;9.216;2023-02-03T04:09:11;96643.47;;;4.47;100.00
4590;BME280;2307;48.448;9.216;2023-02-03T04:11:37;96634.13;;;4.44;100.00
4590;BME280;2307;48.448;9.216;2023-02-03T04:14:22;96657.03;;;4.42;100.00
4590;BME280;2307;48.448;9.216;2023-02-03T04:16:48;96658.53;;;4.37;100.00
4590;BME280;2307;48.448;9.216;2023-02-03T04:19:15;96660.47;;;4.35;100.00
4590;BME280;2307;48.448;9.216;2023-02-03T04:21:41;96666.03;;;4.40;100.00
4590;BME280;2307;48.448;9.216;2023-02-03T04:24:07;96668.47;;;4.41;100.00
4590;BME280;2307;48.448;9.216;2023-02-03T04:26:34;96662.75;;;4.38;100.00
4590;BME280;2307;48.448;9.216;2023-02-03T04:29:00;96659.66;;;4.42;100.00
4590;BME280;2307;48.448;9.216;2023-02-03T04:31:28;96659.16;;;4.39;100.00
4590;BME280;2307;48.448;9.216;2023-02-03T04:33:55;96650.00;;;4.43;100.00
4590;BME280;2307;48.448;9.216;2023-02-03T04:36:21;96649.38;;;4.41;100.00
4590;BME280;2307;48.448;9.216;2023-02-03T04:38:48;96650.69;;;4.37;100.00
4590;BME280;2307;48.448;9.216;2023-02-03T04:41:14;96643.47;;;4.39;100.00
4590;BME280;2307;48.448;9.216;2023-02-03T04:43:40;96654.59;;;4.41;100.00
4590;BME280;2307;48.448;9.216;2023-02-03T04:46:07;96654.09;;;4.45;100.00
4590;BME280;2307;48.448;9.216;2023-02-03T04:48:35;96643.97;;;4.42;100.00
4590;BME280;2307;48.448;9.216;2023-02-03T04:51:02;96634.97;;;4.37;100.00
4590;BME280;2307;48.448;9.216;2023-02-03T04:53:29;96627.44;;;4.42;100.00
4590;BME280;2307;48.448;9.216;2023-02-03T04:55:55;96614.56;;;4.40;100.00
4590;BME280;2307;48.448;9.216;2023-02-03T04:58:22;96612.41;;;4.36;100.00
4590;BME280;2307;48.448;9.216;2023-02-03T05:00:48;96618.13;;;4.39;100.00
4590;BME280;2307;48.448;9.216;2023-02-03T05:03:14;96605.53;;;4.35;100.00
4590;BME280;2307;48.448;9.216;2023-02-03T05:05:42;96613.06;;;4.38;100.00
4590;BME280;2307;48.448;9.216;2023-02-03T05:08:09;96609.97;;;4.34;100.00
4590;BME280;2307;48.448;9.216;2023-02-03T05:10:35;96604.22;;;4.39;100.00
4590;BME280;2307;48.448;9.216;2023-02-03T05:13:01;96602.28;;;4.33;100.00
4590;BME280;2307;48.448;9.216;2023-02-03T05:15:28;96604.41;;;4.29;100.00
4590;BME280;2307;48.448;9.216;2023-02-03T05:17:54;96592.66;;;4.33;100.00
4590;BME280;2307;48.448;9.216;2023-02-03T05:20:20;96609.16;;;4.34;100.00
4590;BME280;2307;48.448;9.216;2023-02-03T05:22:48;96616.00;;;4.35;100.00
4590;BME280;2307;48.448;9.216;2023-02-03T05:25:14;96605.22;;;4.38;100.00
4590;BME280;2307;48.448;9.216;2023-02-03T05:27:41;96605.06;;;4.39;100.00
4590;BME280;2307;48.448;9.216;2023-02-03T05:30:08;96606.19;;;4.45;100.00
4590;BME280;2307;48.448;9.216;2023-02-03T05:32:34;96618.97;;;4.40;100.00
4590;BME280;2307;48.448;9.216;2023-02-03T05:35:01;96601.94;;;4.36;100.00
4590;BME280;2307;48.448;9.216;2023-02-03T05:37:27;96604.56;;;4.36;100.00
4590;BME280;2307;48.448;9.216;2023-02-03T05:39:55;96614.72;;;4.31;100.00
4590;BME280;2307;48.448;9.216;2023-02-03T05:42:45;96619.44;;;4.35;100.00
4590;BME280;2307;48.448;9.216;2023-02-03T05:45:10;96615.66;;;4.38;100.00
4590;BME280;2307;48.448;9.216;2023-02-03T05:47:36;96628.59;;;4.39;100.00
4590;BME280;2307;48.448;9.216;2023-02-03T05:50:03;96629.72;;;4.45;100.00
4590;BME280;2307;48.448;9.216;2023-02-03T05:52:29;96634.31;;;4.43;100.00
4590;BME280;2307;48.448;9.216;2023-02-03T05:54:57;96643.66;;;4.37;100.00
4590;BME280;2307;48.448;9.216;2023-02-03T05:57:23;96655.09;;;4.36;100.00
4590;BME280;2307;48.448;9.216;2023-02-03T05:59:50;96668.31;;;4.35;100.00
4590;BME280;2307;48.448;9.216;2023-02-03T06:02:16;96667.19;;;4.37;100.00
4590;BME280;2307;48.448;9.216;2023-02-03T06:04:42;96664.72;;;4.36;100.00
4590;BME280;2307;48.448;9.216;2023-02-03T06:07:09;96661.31;;;4.27;100.00
4590;BME280;2307;48.448;9.216;2023-02-03T06:09:35;96652.97;;;4.23;100.00
4590;BME280;2307;48.448;9.216;2023-02-03T06:12:03;96648.72;;;4.22;100.00
4590;BME280;2307;48.448;9.216;2023-02-03T06:14:30;96641.03;;;4.21;100.00
4590;BME280;2307;48.448;9.216;2023-02-03T06:16:56;96638.25;;;4.22;100.00
4590;BME280;2307;48.448;9.216;2023-02-03T06:19:22;96637.63;;;4.20;100.00
4590;BME280;2307;48.448;9.216;2023-02-03T06:21:49;96646.28;;;4.21;100.00
4590;BME280;2307;48.448;9.216;2023-02-03T06:26:43;96634.00;;;4.13;100.00
4590;BME280;2307;48.448;9.216;2023-02-03T06:29:10;96642.03;;;4.20;100.00
4590;BME280;2307;48.448;9.216;2023-02-03T06:31:37;96645.47;;;4.20;100.00
4590;BME280;2307;48.448;9.216;2023-02-03T06:34:03;96625.19;;;4.22;100.00
4590;BME280;2307;48.448;9.216;2023-02-03T06:36:29;96610.16;;;4.24;100.00
4590;BME280;2307;48.448;9.216;2023-02-03T06:38:56;96616.66;;;4.28;100.00
4590;BME280;2307;48.448;9.216;2023-02-03T06:41:23;96620.94;;;4.29;100.00
4590;BME280;2307;48.448;9.216;2023-02-03T06:43:52;96621.25;;;4.26;100.00
4590;BME280;2307;48.448;9.216;2023-02-03T06:46:20;96608.19;;;4.26;100.00
4590;BME280;2307;48.448;9.216;2023-02-03T06:48:46;96595.59;;;4.22;100.00
4590;BME280;2307;48.448;9.216;2023-02-03T06:51:13;96604.75;;;4.26;100.00
4590;BME280;2307;48.448;9.216;2023-02-03T06:53:39;96612.13;;;4.31;100.00
4590;BME280;2307;48.448;9.216;2023-02-03T06:56:05;96602.28;;;4.33;100.00
4590;BME280;2307;48.448;9.216;2023-02-03T06:58:32;96634.97;;;4.37;100.00
4590;BME280;2307;48.448;9.216;2023-02-03T07:00:58;96632.69;;;4.42;100.00
4590;BME280;2307;48.448;9.216;2023-02-03T07:03:26;96640.53;;;4.42;100.00
4590;BME280;2307;48.448;9.216;2023-02-03T07:05:52;96658.50;;;4.45;100.00
4590;BME280;2307;48.448;9.216;2023-02-03T07:08:18;96625.81;;;4.49;100.00
4590;BME280;2307;48.448;9.216;2023-02-03T07:10:45;96621.22;;;4.51;100.00
4590;BME280;2307;48.448;9.216;2023-02-03T07:13:11;96594.91;;;4.52;100.00
4590;BME280;2307;48.448;9.216;2023-02-03T07:15:37;96600.75;;;4.54;100.00
4590;BME280;2307;48.448;9.216;2023-02-03T07:18:04;96598.00;;;4.56;100.00
4590;BME280;2307;48.448;9.216;2023-02-03T07:20:31;96592.44;;;4.59;100.00
4590;BME280;2307;48.448;9.216;2023-02-03T07:22:58;96559.06;;;4.61;100.00
4590;BME280;2307;48.448;9.216;2023-02-03T07:25:24;96591.75;;;4.65;100.00
4590;BME280;2307;48.448;9.216;2023-02-03T07:27:51;96573.09;;;4.68;100.00
4590;BME280;2307;48.448;9.216;2023-02-03T07:30:17;96592.22;;;4.68;100.00
4590;BME280;2307;48.448;9.216;2023-02-03T07:32:47;96620.50;;;4.73;100.00
4590;BME280;2307;48.448;9.216;2023-02-03T07:35:13;96588.59;;;4.77;100.00
4590;BME280;2307;48.448;9.216;2023-02-03T07:37:41;96619.81;;;4.79;100.00
4590;BME280;2307;48.448;9.216;2023-02-03T07:40:08;96610.66;;;4.83;100.00
4590;BME280;2307;48.448;9.216;2023-02-03T07:42:34;96607.53;;;4.88;100.00
4590;BME280;2307;48.448;9.216;2023-02-03T07:45:01;96592.66;;;4.88;100.00
4590;BME280;2307;48.448;9.216;2023-02-03T07:47:27;96594.25;;;4.89;100.00
4590;BME280;2307;48.448;9.216;2023-02-03T07:49:53;96583.47;;;4.92;100.00
4590;BME280;2307;48.448;9.216;2023-02-03T07:52:20;96575.94;;;4.89;100.00
4590;BME280;2307;48.448;9.216;2023-02-03T07:54:47;96592.47;;;4.90;100.00
4590;BME280;2307;48.448;9.216;2023-02-03T07:57:14;96581.50;;;4.94;100.00
4590;BME280;2307;48.448;9.216;2023-02-03T07:59:40;96590.47;;;5.00;100.00
4590;BME280;2307;48.448;9.216;2023-02-03T08:02:07;96596.81;;;5.05;100.00
4590;BME280;2307;48.448;9.216;2023-02-03T08:04:35;96605.63;;;5.12;100.00
4590;BME280;2307;48.448;9.216;2023-02-03T08:07:01;96614.81;;;5.08;100.00
4590;BME280;2307;48.448;9.216;2023-02-03T08:09:28;96610.13;;;4.96;100.00
4590;BME280;2307;48.448;9.216;2023-02-03T08:11:55;96629.56;;;5.01;100.00
4590;BME280;2307;48.448;9.216;2023-02-03T08:14:22;96623.03;;;4.97;100.00
4590;BME280;2307;48.448;9.216;2023-02-03T08:16:48;96637.78;;;4.90;100.00
4590;BME280;2307;48.448;9.216;2023-02-03T08:19:14;96658.09;;;4.88;100.00
4590;BME280;2307;48.448;9.216;2023-02-03T08:21:41;96654.19;;;4.84;100.00
4590;BME280;2307;48.448;9.216;2023-02-03T08:24:07;96650.88;;;4.82;100.00
4590;BME280;2307;48.448;9.216;2023-02-03T08:26:34;96668.25;;;4.83;100.00
4590;BME280;2307;48.448;9.216;2023-02-03T08:29:02;96661.53;;;4.80;100.00
4590;BME280;2307;48.448;9.216;2023-02-03T08:31:29;96661.84;;;4.86;100.00
4590;BME280;2307;48.448;9.216;2023-02-03T08:33:55;96662.31;;;4.89;100.00
4590;BME280;2307;48.448;9.216;2023-02-03T08:36:22;96687.22;;;4.85;100.00
4590;BME280;2307;48.448;9.216;2023-02-03T08:38:48;96657.09;;;4.89;100.00
4590;BME280;2307;48.448;9.216;2023-02-03T08:41:15;96666.41;;;4.92;100.00
4590;BME280;2307;48.448;9.216;2023-02-03T08:43:42;96672.47;;;4.92;100.00
4590;BME280;2307;48.448;9.216;2023-02-03T08:46:10;96690.16;;;4.82;100.00
4590;BME280;2307;48.448;9.216;2023-02-03T08:48:37;96689.34;;;4.81;100.00
4590;BME280;2307;48.448;9.216;2023-02-03T08:51:08;96674.28;;;4.83;100.00
4590;BME280;2307;48.448;9.216;2023-02-03T08:53:34;96670.22;;;4.81;100.00
4590;BME280;2307;48.448;9.216;2023-02-03T08:56:03;96683.31;;;4.81;100.00
4590;BME280;2307;48.448;9.216;2023-02-03T08:58:29;96686.25;;;4.78;100.00
4590;BME280;2307;48.448;9.216;2023-02-03T09:01:04;96679.22;;;4.70;100.00
4590;BME280;2307;48.448;9.216;2023-02-03T09:03:31;96681.84;;;4.70;100.00
4590;BME280;2307;48.448;9.216;2023-02-03T09:05:58;96698.06;;;4.66;100.00
4590;BME280;2307;48.448;9.216;2023-02-03T09:08:24;96694.09;;;4.70;100.00
4590;BME280;2307;48.448;9.216;2023-02-03T09:10:51;96690.50;;;4.71;100.00
4590;BME280;2307;48.448;9.216;2023-02-03T09:13:17;96675.97;;;4.68;100.00
4590;BME280;2307;48.448;9.216;2023-02-03T09:15:43;96665.16;;;4.63;100.00
4590;BME280;2307;48.448;9.216;2023-02-03T09:18:10;96681.53;;;4.57;100.00
4590;BME280;2307;48.448;9.216;2023-02-03T09:20:37;96686.44;;;4.60;100.00
4590;BME280;2307;48.448;9.216;2023-02-03T09:23:04;96669.28;;;4.58;100.00
4590;BME280;2307;48.448;9.216;2023-02-03T09:25:30;96670.91;;;4.59;100.00
4590;BME280;2307;48.448;9.216;2023-02-03T09:27:59;96685.31;;;4.55;100.00
4590;BME280;2307;48.448;9.216;2023-02-03T09:30:26;96681.72;;;4.56;100.00
4590;BME280;2307;48.448;9.216;2023-02-03T09:32:52;96681.38;;;4.59;100.00
4590;BME280;2307;48.448;9.216;2023-02-03T09:35:20;96667.28;;;4.60;100.00
4590;BME280;2307;48.448;9.216;2023-02-03T09:37:48;96674.16;;;4.61;100.00
4590;BME280;2307;48.448;9.216;2023-02-03T09:40:17;96667.44;;;4.66;100.00
4590;BME280;2307;48.448;9.216;2023-02-03T09:42:58;96660.28;;;4.68;100.00
4590;BME280;2307;48.448;9.216;2023-02-03T09:45:29;96665.66;;;4.75;100.00
4590;BME280;2307;48.448;9.216;2023-02-03T09:47:57;96680.97;;;4.94;100.00
4590;BME280;2307;48.448;9.216;2023-02-03T09:50:26;96681.13;;;5.01;100.00
4590;BME280;2307;48.448;9.216;2023-02-03T09:52:54;96693.34;;;5.08;100.00
4590;BME280;2307;48.448;9.216;2023-02-03T09:55:27;96681.28;;;5.07;100.00
4590;BME280;2307;48.448;9.216;2023-02-03T09:57:57;96686.03;;;5.04;100.00
4590;BME280;2307;48.448;9.216;2023-02-03T10:00:26;96683.16;;;5.21;100.00
4590;BME280;2307;48.448;9.216;2023-02-03T10:02:55;96674.69;;;5.19;100.00
4590;BME280;2307;48.448;9.216;2023-02-03T10:05:29;96689.56;;;5.19;100.00
4590;BME280;2307;48.448;9.216;2023-02-03T10:08:01;96694.47;;;5.22;100.00
4590;BME280;2307;48.448;9.216;2023-02-03T10:10:32;96657.94;;;5.28;100.00
4590;BME280;2307;48.448;9.216;2023-02-03T10:13:05;96689.16;;;5.38;100.00
4590;BME280;2307;48.448;9.216;2023-02-03T10:15:38;96673.31;;;5.31;100.00
4590;BME280;2307;48.448;9.216;2023-02-03T10:18:08;96670.00;;;5.38;100.00
4590;BME280;2307;48.448;9.216;2023-02-03T10:20:38;96676.34;;;5.43;100.00
4590;BME280;2307;48.448;9.216;2023-02-03T10:23:09;96654.34;;;5.52;100.00
4590;BME280;2307;48.448;9.216;2023-02-03T10:25:38;96670.44;;;5.49;100.00
4590;BME280;2307;48.448;9.216;2023-02-03T10:28:08;96647.50;;;5.51;100.00
4590;BME280;2307;48.448;9.216;2023-02-03T10:30:36;96660.47;;;5.45;100.00
4590;BME280;2307;48.448;9.216;2023-02-03T10:33:09;96649.47;;;5.49;100.00
4590;BME280;2307;48.448;9.216;2023-02-03T10:35:41;96637.50;;;5.55;100.00
4590;BME280;2307;48.448;9.216;2023-02-03T10:38:14;96640.00;;;5.71;100.00
4590;BME280;2307;48.448;9.216;2023-02-03T10:40:44;96672.25;;;5.71;100.00
4590;BME280;2307;48.448;9.216;2023-02-03T10:43:11;96658.31;;;5.79;100.00
4590;BME280;2307;48.448;9.216;2023-02-03T10:45:55;96673.13;;;5.95;100.00
4590;BME280;2307;48.448;9.216;2023-02-03T10:48:23;96677.53;;;6.02;100.00
4590;BME280;2307;48.448;9.216;2023-02-03T10:50:50;96676.94;;;6.15;100.00
4590;BME280;2307;48.448;9.216;2023-02-03T10:53:22;96664.09;;;6.20;100.00
4590;BME280;2307;48.448;9.216;2023-02-03T10:55:50;96670.09;;;6.28;100.00
4590;BME280;2307;48.448;9.216;2023-02-03T10:58:20;96671.09;;;6.27;100.00
4590;BME280;2307;48.448;9.216;2023-02-03T11:00:49;96686.13;;;6.33;100.00
4590;BME280;2307;48.448;9.216;2023-02-03T11:03:20;96668.75;;;6.32;100.00
4590;BME280;2307;48.448;9.216;2023-02-03T11:05:51;96663.63;;;6.16;100.00
4590;BME280;2307;48.448;9.216;2023-02-03T11:08:30;96636.19;;;6.04;100.00
4590;BME280;2307;48.448;9.216;2023-02-03T11:11:00;96633.84;;;6.09;100.00
4590;BME280;2307;48.448;9.216;2023-02-03T11:13:27;96631.94;;;6.03;100.00
4590;BME280;2307;48.448;9.216;2023-02-03T11:15:54;96625.44;;;5.99;100.00
4590;BME280;2307;48.448;9.216;2023-02-03T11:18:25;96607.00;;;6.07;100.00
4590;BME280;2307;48.448;9.216;2023-02-03T11:20:52;96588.66;;;6.22;100.00
4590;BME280;2307;48.448;9.216;2023-02-03T11:23:19;96595.91;;;6.20;100.00
4590;BME280;2307;48.448;9.216;2023-02-03T11:25:47;96572.81;;;6.15;100.00
4590;BME280;2307;48.448;9.216;2023-02-03T11:28:13;96578.34;;;6.20;100.00
4590;BME280;2307;48.448;9.216;2023-02-03T11:30:40;96568.84;;;6.19;100.00
4590;BME280;2307;48.448;9.216;2023-02-03T11:33:13;96582.09;;;6.40;100.00
4590;BME280;2307;48.448;9.216;2023-02-03T11:35:50;96578.47;;;6.71;100.00
4590;BME280;2307;48.448;9.216;2023-02-03T11:38:27;96577.56;;;6.93;100.00
4590;BME280;2307;48.448;9.216;2023-02-03T11:40:58;96564.88;;;6.82;100.00
4590;BME280;2307;48.448;9.216;2023-02-03T11:43:26;96586.00;;;6.74;100.00
4590;BME280;2307;48.448;9.216;2023-02-03T11:45:58;96599.75;;;6.90;100.00
4590;BME280;2307;48.448;9.216;2023-02-03T11:48:25;96602.19;;;6.92;100.00
4590;BME280;2307;48.448;9.216;2023-02-03T11:50:56;96599.66;;;6.84;100.00
4590;BME280;2307;48.448;9.216;2023-02-03T11:53:27;96566.69;;;6.67;100.00
4590;BME280;2307;48.448;9.216;2023-02-03T11:55:57;96581.81;;;6.50;100.00
4590;BME280;2307;48.448;9.216;2023-02-03T12:01:18;96585.72;;;6.54;100.00
4590;BME280;2307;48.448;9.216;2023-02-03T12:06:45;96604.06;;;6.39;100.00
4590;BME280;2307;48.448;9.216;2023-02-03T12:09:17;96604.13;;;6.31;100.00
4590;BME280;2307;48.448;9.216;2023-02-03T12:11:57;96596.72;;;6.20;100.00
4590;BME280;2307;48.448;9.216;2023-02-03T12:14:30;96585.97;;;6.30;100.00
4590;BME280;2307;48.448;9.216;2023-02-03T12:17:08;96564.00;;;6.31;100.00
4590;BME280;2307;48.448;9.216;2023-02-03T12:19:41;96585.50;;;6.26;100.00
4590;BME280;2307;48.448;9.216;2023-02-03T12:22:12;96580.34;;;6.18;100.00
4590;BME280;2307;48.448;9.216;2023-02-03T12:24:43;96572.66;;;6.17;100.00
4590;BME280;2307;48.448;9.216;2023-02-03T12:27:20;96575.94;;;6.33;100.00
4590;BME280;2307;48.448;9.216;2023-02-03T12:29:50;96564.53;;;6.26;100.00
4590;BME280;2307;48.448;9.216;2023-02-03T12:32:22;96570.84;;;6.17;100.00
4590;BME280;2307;48.448;9.216;2023-02-03T12:34:51;96581.69;;;6.14;100.00
4590;BME280;2307;48.448;9.216;2023-02-03T12:37:20;96561.78;;;6.05;100.00
4590;BME280;2307;48.448;9.216;2023-02-03T12:39:49;96576.22;;;6.01;100.00
4590;BME280;2307;48.448;9.216;2023-02-03T12:42:17;96570.63;;;6.04;100.00
4590;BME280;2307;48.448;9.216;2023-02-03T12:44:46;96571.81;;;6.02;100.00
4590;BME280;2307;48.448;9.216;2023-02-03T12:47:15;96590.31;;;6.00;100.00
4590;BME280;2307;48.448;9.216;2023-02-03T12:49:44;96572.22;;;5.91;100.00
4590;BME280;2307;48.448;9.216;2023-02-03T12:52:16;96588.25;;;5.96;100.00
4590;BME280;2307;48.448;9.216;2023-02-03T12:54:46;96581.19;;;5.96;100.00
4590;BME280;2307;48.448;9.216;2023-02-03T12:57:16;96544.66;;;5.95;100.00
4590;BME280;2307;48.448;9.216;2023-02-03T12:59:46;96547.19;;;6.03;100.00
4590;BME280;2307;48.448;9.216;2023-02-03T13:02:16;96567.28;;;5.96;100.00
4590;BME280;2307;48.448;9.216;2023-02-03T13:04:49;96534.28;;;6.01;100.00
4590;BME280;2307;48.448;9.216;2023-02-03T13:07:20;96551.00;;;6.00;100.00
4590;BME280;2307;48.448;9.216;2023-02-03T13:09:51;96525.84;;;5.91;100.00
4590;BME280;2307;48.448;9.216;2023-02-03T13:12:22;96504.41;;;5.87;100.00
4590;BME280;2307;48.448;9.216;2023-02-03T13:14:51;96509.34;;;5.82;100.00
4590;BME280;2307;48.448;9.216;2023-02-03T13:17:21;96496.41;;;5.81;100.00
4590;BME280;2307;48.448;9.216;2023-02-03T13:19:51;96484.09;;;5.90;100.00
4590;BME280;2307;48.448;9.216;2023-02-03T13:22:18;96472.44;;;5.84;100.00
4590;BME280;2307;48.448;9.216;2023-02-03T13:24:48;96453.97;;;5.85;100.00
4590;BME280;2307;48.448;9.216;2023-02-03T13:27:22;96459.84;;;5.87;100.00
4590;BME280;2307;48.448;9.216;2023-02-03T13:30:01;96455.25;;;5.90;100.00
4590;BME280;2307;48.448;9.216;2023-02-03T13:32:36;96467.41;;;5.82;100.00
4590;BME280;2307;48.448;9.216;2023-02-03T13:35:11;96464.09;;;5.88;100.00
4590;BME280;2307;48.448;9.216;2023-02-03T13:37:47;96473.75;;;5.88;100.00
4590;BME280;2307;48.448;9.216;2023-02-03T13:40:20;96451.84;;;5.81;100.00